Terminal Aerodrome Forecast
Issued by NWS

Home | Current Version | Previous Version | Text Only | Print | Product List | Glossary On
Versions: 1 2 3 4 5 6 7 8 9 10 11 12 13
000
FTUS45 KRIW 272320
TAFBPI
TAF
KBPI 272320Z 2800/2824 28018G28KT P6SM VCSH SCT110
     FM280200 31011KT P6SM SCT120
     FM281500 VRB06KT P6SM SKC
     FM281900 30011KT P6SM SKC=

USA.gov is the U.S. government's official web portal to all federal, state and local government web resources and services.